sensor_id;sensor_type;location;lat;lon;timestamp;pressure;altitude;pressure_sealevel;temperature;humidity
84496;BME280;74855;51.206;17.408;2024-01-25T00:01:21;99559.19;;;7.51;65.48
84496;BME280;74855;51.206;17.408;2024-01-25T00:06:16;99562.63;;;7.51;65.36
84496;BME280;74855;51.206;17.408;2024-01-25T00:11:13;99552.34;;;7.50;65.53
84496;BME280;74855;51.206;17.408;2024-01-25T00:16:09;99554.16;;;7.49;65.26
84496;BME280;74855;51.206;17.408;2024-01-25T00:21:05;99579.00;;;7.47;65.22
84496;BME280;74855;51.206;17.408;2024-01-25T00:26:00;99578.19;;;7.46;65.04
84496;BME280;74855;51.206;17.408;2024-01-25T00:30:57;99573.75;;;7.47;65.35
84496;BME280;74855;51.206;17.408;2024-01-25T00:35:53;99579.81;;;7.41;66.03
84496;BME280;74855;51.206;17.408;2024-01-25T00:40:49;99582.22;;;7.42;65.99
84496;BME280;74855;51.206;17.408;2024-01-25T00:45:45;99585.25;;;7.39;66.14
84496;BME280;74855;51.206;17.408;2024-01-25T00:50:43;99590.88;;;7.36;66.25
84496;BME280;74855;51.206;17.408;2024-01-25T00:55:39;99582.81;;;7.31;66.67
84496;BME280;74855;51.206;17.408;2024-01-25T01:00:35;99585.88;;;7.28;66.75
84496;BME280;74855;51.206;17.408;2024-01-25T01:05:32;99604.22;;;7.28;67.14
84496;BME280;74855;51.206;17.408;2024-01-25T01:10:29;99611.06;;;7.22;67.33
84496;BME280;74855;51.206;17.408;2024-01-25T01:15:24;99619.94;;;7.21;67.33
84496;BME280;74855;51.206;17.408;2024-01-25T01:20:21;99618.13;;;7.22;67.34
84496;BME280;74855;51.206;17.408;2024-01-25T01:25:16;99637.69;;;7.19;67.70
84496;BME280;74855;51.206;17.408;2024-01-25T01:30:13;99636.66;;;7.14;68.94
84496;BME280;74855;51.206;17.408;2024-01-25T01:35:09;99612.69;;;7.04;68.24
84496;BME280;74855;51.206;17.408;2024-01-25T01:40:05;99624.97;;;6.97;68.42
84496;BME280;74855;51.206;17.408;2024-01-25T01:45:01;99605.81;;;6.96;67.83
84496;BME280;74855;51.206;17.408;2024-01-25T01:49:58;99633.41;;;6.99;67.38
84496;BME280;74855;51.206;17.408;2024-01-25T01:54:54;99620.31;;;7.05;66.32
84496;BME280;74855;51.206;17.408;2024-01-25T01:59:50;99611.06;;;7.09;66.10
84496;BME280;74855;51.206;17.408;2024-01-25T02:04:45;99607.22;;;7.12;65.79
84496;BME280;74855;51.206;17.408;2024-01-25T02:09:42;99619.53;;;7.18;65.05
84496;BME280;74855;51.206;17.408;2024-01-25T02:14:38;99620.94;;;7.20;64.52
84496;BME280;74855;51.206;17.408;2024-01-25T02:19:33;99623.16;;;7.23;64.56
84496;BME280;74855;51.206;17.408;2024-01-25T02:24:31;99622.16;;;7.24;63.86
84496;BME280;74855;51.206;17.408;2024-01-25T02:29:26;99617.91;;;7.23;63.50
84496;BME280;74855;51.206;17.408;2024-01-25T02:34:22;99614.09;;;7.26;62.89
84496;BME280;74855;51.206;17.408;2024-01-25T02:39:17;99603.59;;;7.26;62.63
84496;BME280;74855;51.206;17.408;2024-01-25T02:44:15;99603.41;;;7.28;62.46
84496;BME280;74855;51.206;17.408;2024-01-25T02:49:10;99600.16;;;7.32;62.01
84496;BME280;74855;51.206;17.408;2024-01-25T02:54:06;99601.19;;;7.31;61.98
84496;BME280;74855;51.206;17.408;2024-01-25T02:59:01;99606.41;;;7.31;61.52
84496;BME280;74855;51.206;17.408;2024-01-25T03:03:58;99624.78;;;7.31;61.40
84496;BME280;74855;51.206;17.408;2024-01-25T03:08:54;99629.81;;;7.33;61.55
84496;BME280;74855;51.206;17.408;2024-01-25T03:13:49;99620.75;;;7.35;61.19
84496;BME280;74855;51.206;17.408;2024-01-25T03:18:45;99617.53;;;7.33;61.57
84496;BME280;74855;51.206;17.408;2024-01-25T03:23:42;99628.22;;;7.38;61.36
84496;BME280;74855;51.206;17.408;2024-01-25T03:28:37;99629.81;;;7.39;61.11
84496;BME280;74855;51.206;17.408;2024-01-25T03:33:33;99628.22;;;7.38;61.27
84496;BME280;74855;51.206;17.408;2024-01-25T03:38:29;99636.88;;;7.39;61.57
84496;BME280;74855;51.206;17.408;2024-01-25T03:43:27;99630.03;;;7.38;61.19
84496;BME280;74855;51.206;17.408;2024-01-25T03:48:23;99644.94;;;7.37;62.86
84496;BME280;74855;51.206;17.408;2024-01-25T03:53:18;99636.25;;;7.30;63.12
84496;BME280;74855;51.206;17.408;2024-01-25T03:58:14;99632.84;;;7.23;63.72
84496;BME280;74855;51.206;17.408;2024-01-25T04:03:11;99621.75;;;7.14;64.52
84496;BME280;74855;51.206;17.408;2024-01-25T04:08:07;99608.81;;;7.06;64.75
84496;BME280;74855;51.206;17.408;2024-01-25T04:13:03;99606.63;;;7.03;65.04
84496;BME280;74855;51.206;17.408;2024-01-25T04:18:00;99617.50;;;7.00;65.13
84496;BME280;74855;51.206;17.408;2024-01-25T04:23:00;99610.44;;;7.01;64.99
84496;BME280;74855;51.206;17.408;2024-01-25T04:27:56;99598.75;;;7.03;64.66
84496;BME280;74855;51.206;17.408;2024-01-25T04:32:51;99606.22;;;7.13;63.48
84496;BME280;74855;51.206;17.408;2024-01-25T04:37:47;99610.84;;;7.17;63.63
84496;BME280;74855;51.206;17.408;2024-01-25T04:42:44;99604.59;;;7.18;63.56
84496;BME280;74855;51.206;17.408;2024-01-25T04:47:39;99608.66;;;7.21;63.44
84496;BME280;74855;51.206;17.408;2024-01-25T04:52:35;99625.00;;;7.23;63.76
84496;BME280;74855;51.206;17.408;2024-01-25T04:57:30;99607.03;;;7.20;64.24
84496;BME280;74855;51.206;17.408;2024-01-25T05:02:27;99627.00;;;7.14;64.93
84496;BME280;74855;51.206;17.408;2024-01-25T05:07:23;99608.22;;;7.04;65.25
84496;BME280;74855;51.206;17.408;2024-01-25T05:12:20;99627.34;;;6.98;65.81
84496;BME280;74855;51.206;17.408;2024-01-25T05:17:15;99614.06;;;6.93;66.35
84496;BME280;74855;51.206;17.408;2024-01-25T05:22:12;99601.38;;;6.90;66.34
84496;BME280;74855;51.206;17.408;2024-01-25T05:27:08;99649.53;;;6.89;66.83
84496;BME280;74855;51.206;17.408;2024-01-25T05:32:03;99656.16;;;6.92;66.41
84496;BME280;74855;51.206;17.408;2024-01-25T05:36:59;99651.53;;;6.87;67.50
84496;BME280;74855;51.206;17.408;2024-01-25T05:41:56;99661.38;;;6.85;66.96
84496;BME280;74855;51.206;17.408;2024-01-25T05:46:52;99662.19;;;6.85;66.48
84496;BME280;74855;51.206;17.408;2024-01-25T05:51:47;99651.94;;;6.84;66.87
84496;BME280;74855;51.206;17.408;2024-01-25T05:56:43;99655.38;;;6.84;66.47
84496;BME280;74855;51.206;17.408;2024-01-25T06:01:40;99660.38;;;6.86;67.04
84496;BME280;74855;51.206;17.408;2024-01-25T06:06:35;99642.28;;;6.84;66.67
84496;BME280;74855;51.206;17.408;2024-01-25T06:11:31;99658.00;;;6.84;67.09
84496;BME280;74855;51.206;17.408;2024-01-25T06:16:26;99665.41;;;6.81;67.58
84496;BME280;74855;51.206;17.408;2024-01-25T06:21:23;99641.81;;;6.74;67.87
84496;BME280;74855;51.206;17.408;2024-01-25T06:26:19;99668.44;;;6.71;67.74
84496;BME280;74855;51.206;17.408;2024-01-25T06:31:14;99639.41;;;6.73;66.14
84496;BME280;74855;51.206;17.408;2024-01-25T06:36:10;99658.00;;;6.84;65.32
84496;BME280;74855;51.206;17.408;2024-01-25T06:41:08;99635.00;;;6.93;65.00
84496;BME280;74855;51.206;17.408;2024-01-25T06:46:05;99649.13;;;6.99;64.22
84496;BME280;74855;51.206;17.408;2024-01-25T06:51:01;99663.66;;;7.01;63.74
84496;BME280;74855;51.206;17.408;2024-01-25T06:55:56;99673.53;;;7.06;63.03
84496;BME280;74855;51.206;17.408;2024-01-25T07:00:53;99657.25;;;7.10;62.40
84496;BME280;74855;51.206;17.408;2024-01-25T07:05:49;99660.66;;;7.17;62.04
84496;BME280;74855;51.206;17.408;2024-01-25T07:10:45;99669.97;;;7.27;60.90
84496;BME280;74855;51.206;17.408;2024-01-25T07:15:41;99682.47;;;7.31;61.21
84496;BME280;74855;51.206;17.408;2024-01-25T07:20:38;99698.41;;;7.36;60.72
84496;BME280;74855;51.206;17.408;2024-01-25T07:25:33;99701.84;;;7.43;60.82
84496;BME280;74855;51.206;17.408;2024-01-25T07:30:29;99715.97;;;7.42;62.32
84496;BME280;74855;51.206;17.408;2024-01-25T07:35:24;99727.25;;;7.43;61.06
84496;BME280;74855;51.206;17.408;2024-01-25T07:40:21;99757.13;;;7.42;60.62
84496;BME280;74855;51.206;17.408;2024-01-25T07:45:17;99757.13;;;7.42;61.16
84496;BME280;74855;51.206;17.408;2024-01-25T07:50:12;99748.84;;;7.45;60.71
84496;BME280;74855;51.206;17.408;2024-01-25T07:55:08;99776.69;;;7.46;60.58
84496;BME280;74855;51.206;17.408;2024-01-25T08:00:06;99776.06;;;7.44;60.03
84496;BME280;74855;51.206;17.408;2024-01-25T08:05:02;99771.25;;;7.47;59.91
84496;BME280;74855;51.206;17.408;2024-01-25T08:09:58;99792.25;;;7.54;60.24
84496;BME280;74855;51.206;17.408;2024-01-25T08:14:54;99782.97;;;7.58;59.59
84496;BME280;74855;51.206;17.408;2024-01-25T08:19:51;99781.38;;;7.63;60.05
84496;BME280;74855;51.206;17.408;2024-01-25T08:24:46;99802.38;;;7.70;59.95
84496;BME280;74855;51.206;17.408;2024-01-25T08:29:42;99801.78;;;7.68;59.73
84496;BME280;74855;51.206;17.408;2024-01-25T08:34:37;99797.75;;;7.72;59.55
84496;BME280;74855;51.206;17.408;2024-01-25T08:39:34;99810.25;;;7.77;59.86
84496;BME280;74855;51.206;17.408;2024-01-25T08:44:30;99814.31;;;7.79;59.68
84496;BME280;74855;51.206;17.408;2024-01-25T08:49:26;99821.78;;;7.89;59.36
84496;BME280;74855;51.206;17.408;2024-01-25T08:54:22;99820.97;;;8.01;58.62
84496;BME280;74855;51.206;17.408;2024-01-25T08:59:19;99830.91;;;8.06;58.08
84496;BME280;74855;51.206;17.408;2024-01-25T09:04:14;99835.91;;;8.07;58.77
84496;BME280;74855;51.206;17.408;2024-01-25T09:09:10;99839.56;;;8.06;58.75
84496;BME280;74855;51.206;17.408;2024-01-25T09:14:05;99846.84;;;8.04;58.82
84496;BME280;74855;51.206;17.408;2024-01-25T09:19:02;99854.09;;;8.02;59.07
84496;BME280;74855;51.206;17.408;2024-01-25T09:23:58;99854.72;;;8.04;58.86
84496;BME280;74855;51.206;17.408;2024-01-25T09:28:53;99874.28;;;8.02;58.76
84496;BME280;74855;51.206;17.408;2024-01-25T09:33:50;99879.53;;;8.02;58.84
84496;BME280;74855;51.206;17.408;2024-01-25T09:38:47;99868.44;;;8.20;58.16
84496;BME280;74855;51.206;17.408;2024-01-25T09:43:43;99870.72;;;8.56;57.20
84496;BME280;74855;51.206;17.408;2024-01-25T09:48:38;99880.63;;;8.54;56.86
84496;BME280;74855;51.206;17.408;2024-01-25T09:53:35;99885.47;;;8.63;56.52
84496;BME280;74855;51.206;17.408;2024-01-25T09:58:37;99889.31;;;8.48;57.03
84496;BME280;74855;51.206;17.408;2024-01-25T10:03:33;99905.06;;;8.34;57.13
84496;BME280;74855;51.206;17.408;2024-01-25T10:08:29;99899.38;;;8.18;57.46
84496;BME280;74855;51.206;17.408;2024-01-25T10:13:26;99900.75;;;8.14;57.66
84496;BME280;74855;51.206;17.408;2024-01-25T10:18:23;99910.69;;;8.25;57.45
84496;BME280;74855;51.206;17.408;2024-01-25T10:23:19;99918.41;;;8.39;57.46
84496;BME280;74855;51.206;17.408;2024-01-25T10:28:16;99919.22;;;8.66;57.77
84496;BME280;74855;51.206;17.408;2024-01-25T10:33:11;99927.09;;;8.73;57.18
84496;BME280;74855;51.206;17.408;2024-01-25T10:38:09;99927.28;;;8.84;56.78
84496;BME280;74855;51.206;17.408;2024-01-25T10:43:05;99943.28;;;8.76;57.91
84496;BME280;74855;51.206;17.408;2024-01-25T10:48:00;99938.03;;;8.63;57.82
84496;BME280;74855;51.206;17.408;2024-01-25T10:52:57;99942.47;;;8.43;58.47
84496;BME280;74855;51.206;17.408;2024-01-25T10:57:55;99965.28;;;8.36;59.34
84496;BME280;74855;51.206;17.408;2024-01-25T11:02:51;99964.44;;;8.29;58.58
84496;BME280;74855;51.206;17.408;2024-01-25T11:07:50;99961.41;;;8.25;58.72
84496;BME280;74855;51.206;17.408;2024-01-25T11:12:50;99963.41;;;8.30;58.73
84496;BME280;74855;51.206;17.408;2024-01-25T11:17:53;99963.25;;;8.31;58.62
84496;BME280;74855;51.206;17.408;2024-01-25T11:22:55;99963.66;;;8.41;58.31
84496;BME280;74855;51.206;17.408;2024-01-25T11:27:52;99954.78;;;8.36;58.31
84496;BME280;74855;51.206;17.408;2024-01-25T11:32:48;99967.91;;;8.36;58.45
84496;BME280;74855;51.206;17.408;2024-01-25T11:37:46;99977.78;;;8.34;59.01
84496;BME280;74855;51.206;17.408;2024-01-25T11:42:45;99970.88;;;8.26;58.70
84496;BME280;74855;51.206;17.408;2024-01-25T11:47:43;99958.16;;;8.30;59.02
84496;BME280;74855;51.206;17.408;2024-01-25T11:52:39;99966.88;;;8.30;59.03
84496;BME280;74855;51.206;17.408;2024-01-25T11:57:39;99958.81;;;8.32;57.88
84496;BME280;74855;51.206;17.408;2024-01-25T12:02:35;99960.03;;;8.36;58.20
84496;BME280;74855;51.206;17.408;2024-01-25T12:07:33;99963.66;;;8.41;57.97
84496;BME280;74855;51.206;17.408;2024-01-25T12:12:28;99951.97;;;8.44;58.00
84496;BME280;74855;51.206;17.408;2024-01-25T12:17:27;99948.13;;;8.86;57.30
84496;BME280;74855;51.206;17.408;2024-01-25T12:22:23;99949.97;;;9.63;55.05
84496;BME280;74855;51.206;17.408;2024-01-25T12:27:20;99949.63;;;9.46;55.15
84496;BME280;74855;51.206;17.408;2024-01-25T12:32:17;99947.88;;;9.27;55.76
84496;BME280;74855;51.206;17.408;2024-01-25T12:37:14;99957.78;;;9.89;55.02
84496;BME280;74855;51.206;17.408;2024-01-25T12:42:09;99967.00;;;10.50;53.89
84496;BME280;74855;51.206;17.408;2024-01-25T12:47:05;99975.97;;;9.97;53.91
84496;BME280;74855;51.206;17.408;2024-01-25T12:52:01;99965.56;;;9.64;53.86
84496;BME280;74855;51.206;17.408;2024-01-25T12:56:58;99968.91;;;9.34;54.54
84496;BME280;74855;51.206;17.408;2024-01-25T13:01:53;99994.00;;;9.10;54.61
84496;BME280;74855;51.206;17.408;2024-01-25T13:06:50;99994.44;;;8.94;54.74
84496;BME280;74855;51.206;17.408;2024-01-25T13:11:46;99988.16;;;8.81;54.94
84496;BME280;74855;51.206;17.408;2024-01-25T13:16:43;99990.78;;;8.81;54.88
84496;BME280;74855;51.206;17.408;2024-01-25T13:21:40;99990.81;;;8.95;54.68
84496;BME280;74855;51.206;17.408;2024-01-25T13:26:36;99992.59;;;9.07;54.05
84496;BME280;74855;51.206;17.408;2024-01-25T13:31:31;100006.75;;;9.13;53.78
84496;BME280;74855;51.206;17.408;2024-01-25T13:36:28;99982.28;;;9.06;53.92
84496;BME280;74855;51.206;17.408;2024-01-25T13:41:24;100005.56;;;9.02;53.54
84496;BME280;74855;51.206;17.408;2024-01-25T13:46:20;100013.66;;;9.01;53.13
84496;BME280;74855;51.206;17.408;2024-01-25T13:51:15;100008.78;;;8.98;54.03
84496;BME280;74855;51.206;17.408;2024-01-25T13:56:12;100011.41;;;8.98;53.84
84496;BME280;74855;51.206;17.408;2024-01-25T14:01:08;100016.66;;;8.91;54.19
84496;BME280;74855;51.206;17.408;2024-01-25T14:06:04;100001.91;;;8.77;54.19
84496;BME280;74855;51.206;17.408;2024-01-25T14:10:59;100014.25;;;8.70;54.86
84496;BME280;74855;51.206;17.408;2024-01-25T14:15:56;100017.06;;;8.62;54.55
84496;BME280;74855;51.206;17.408;2024-01-25T14:20:52;100031.41;;;8.66;54.63
84496;BME280;74855;51.206;17.408;2024-01-25T14:25:47;100034.84;;;8.66;54.47
84496;BME280;74855;51.206;17.408;2024-01-25T14:30:44;100028.19;;;8.64;54.14
84496;BME280;74855;51.206;17.408;2024-01-25T14:35:41;100039.69;;;8.56;55.08
84496;BME280;74855;51.206;17.408;2024-01-25T14:40:37;100044.72;;;8.44;54.78
84496;BME280;74855;51.206;17.408;2024-01-25T14:45:32;100050.94;;;8.30;55.19
84496;BME280;74855;51.206;17.408;2024-01-25T14:50:28;100055.09;;;8.12;55.55
84496;BME280;74855;51.206;17.408;2024-01-25T14:55:26;100070.59;;;8.00;56.02
84496;BME280;74855;51.206;17.408;2024-01-25T15:00:21;100082.44;;;7.89;56.07
84496;BME280;74855;51.206;17.408;2024-01-25T15:05:17;100101.16;;;7.80;56.81
84496;BME280;74855;51.206;17.408;2024-01-25T15:10:12;100097.25;;;7.69;57.35
84496;BME280;74855;51.206;17.408;2024-01-25T15:15:10;100104.03;;;7.57;57.56
84496;BME280;74855;51.206;17.408;2024-01-25T15:20:06;100091.50;;;7.31;57.39
84496;BME280;74855;51.206;17.408;2024-01-25T15:25:02;100111.56;;;7.39;57.95
84496;BME280;74855;51.206;17.408;2024-01-25T15:29:58;100112.31;;;7.33;58.21
84496;BME280;74855;51.206;17.408;2024-01-25T15:34:55;100127.00;;;7.27;58.27
84496;BME280;74855;51.206;17.408;2024-01-25T16:12:00;100198.09;;;7.39;57.62
84496;BME280;74855;51.206;17.408;2024-01-25T16:16:55;100199.25;;;7.30;57.83
84496;BME280;74855;51.206;17.408;2024-01-25T16:21:51;100214.91;;;7.23;57.75
84496;BME280;74855;51.206;17.408;2024-01-25T16:26:46;100204.78;;;7.20;57.76
84496;BME280;74855;51.206;17.408;2024-01-25T16:31:43;100224.69;;;7.14;58.04
84496;BME280;74855;51.206;17.408;2024-01-25T16:36:39;100232.09;;;7.11;58.41
84496;BME280;74855;51.206;17.408;2024-01-25T16:41:34;100234.94;;;7.09;58.77
84496;BME280;74855;51.206;17.408;2024-01-25T16:46:30;100248.38;;;7.06;58.87
84496;BME280;74855;51.206;17.408;2024-01-25T16:51:28;100238.28;;;7.03;59.11
84496;BME280;74855;51.206;17.408;2024-01-25T16:56:23;100244.69;;;7.01;59.37
84496;BME280;74855;51.206;17.408;2024-01-25T17:01:20;100256.34;;;6.98;59.58
84496;BME280;74855;51.206;17.408;2024-01-25T17:06:16;100265.22;;;6.97;59.95
84496;BME280;74855;51.206;17.408;2024-01-25T17:11:13;100267.84;;;6.97;60.57
84496;BME280;74855;51.206;17.408;2024-01-25T17:16:09;100265.41;;;6.96;60.32
84496;BME280;74855;51.206;17.408;2024-01-25T17:21:04;100271.47;;;6.96;60.65
84496;BME280;74855;51.206;17.408;2024-01-25T17:26:00;100287.38;;;6.95;60.62
84496;BME280;74855;51.206;17.408;2024-01-25T17:30:57;100289.19;;;6.94;60.80
84496;BME280;74855;51.206;17.408;2024-01-25T17:35:52;100294.41;;;6.94;61.16
84496;BME280;74855;51.206;17.408;2024-01-25T17:40:48;100303.28;;;6.93;61.16
84496;BME280;74855;51.206;17.408;2024-01-25T17:45:44;100308.69;;;6.92;61.50
84496;BME280;74855;51.206;17.408;2024-01-25T17:50:41;100303.19;;;6.87;62.10
84496;BME280;74855;51.206;17.408;2024-01-25T17:55:37;100309.97;;;6.81;62.56
84496;BME280;74855;51.206;17.408;2024-01-25T18:00:32;100321.81;;;6.77;62.94
84496;BME280;74855;51.206;17.408;2024-01-25T18:05:28;100310.03;;;6.73;63.60
84496;BME280;74855;51.206;17.408;2024-01-25T18:10:25;100313.38;;;6.67;63.24
84496;BME280;74855;51.206;17.408;2024-01-25T18:15:23;100306.72;;;6.64;63.35
84496;BME280;74855;51.206;17.408;2024-01-25T18:20:18;100316.56;;;6.62;63.11
84496;BME280;74855;51.206;17.408;2024-01-25T18:25:14;100324.78;;;6.59;63.19
84496;BME280;74855;51.206;17.408;2024-01-25T18:30:12;100305.00;;;6.57;63.06
84496;BME280;74855;51.206;17.408;2024-01-25T18:35:08;100305.53;;;6.52;63.18
84496;BME280;74855;51.206;17.408;2024-01-25T18:40:04;100311.13;;;6.49;63.31
84496;BME280;74855;51.206;17.408;2024-01-25T18:45:02;100329.00;;;6.46;63.35
84496;BME280;74855;51.206;17.408;2024-01-25T18:49:59;100341.47;;;6.43;63.73
84496;BME280;74855;51.206;17.408;2024-01-25T18:54:55;100346.88;;;6.42;63.56
84496;BME280;74855;51.206;17.408;2024-01-25T18:59:51;100336.00;;;6.30;63.71
84496;BME280;74855;51.206;17.408;2024-01-25T19:04:47;100360.13;;;6.40;63.54
84496;BME280;74855;51.206;17.408;2024-01-25T19:09:44;100363.78;;;6.39;63.66
84496;BME280;74855;51.206;17.408;2024-01-25T19:14:40;100374.41;;;6.38;63.17
84496;BME280;74855;51.206;17.408;2024-01-25T19:19:36;100375.22;;;6.38;63.47
84496;BME280;74855;51.206;17.408;2024-01-25T19:24:31;100368.38;;;6.37;62.98
84496;BME280;74855;51.206;17.408;2024-01-25T19:29:28;100389.75;;;6.41;63.43
84496;BME280;74855;51.206;17.408;2024-01-25T19:34:24;100387.34;;;6.39;63.24
84496;BME280;74855;51.206;17.408;2024-01-25T19:39:19;100383.69;;;6.40;63.52
84496;BME280;74855;51.206;17.408;2024-01-25T19:44:15;100389.75;;;6.41;63.53
84496;BME280;74855;51.206;17.408;2024-01-25T19:49:12;100388.31;;;6.38;63.93
84496;BME280;74855;51.206;17.408;2024-01-25T19:54:08;100379.81;;;6.36;64.27
84496;BME280;74855;51.206;17.408;2024-01-25T19:59:04;100386.03;;;6.35;64.17
84496;BME280;74855;51.206;17.408;2024-01-25T20:04:00;100389.84;;;6.33;64.38
84496;BME280;74855;51.206;17.408;2024-01-25T20:08:57;100393.28;;;6.33;64.19
84496;BME280;74855;51.206;17.408;2024-01-25T20:13:53;100393.63;;;6.30;64.85
84496;BME280;74855;51.206;17.408;2024-01-25T20:18:48;100400.31;;;6.33;64.58
84496;BME280;74855;51.206;17.408;2024-01-25T20:23:44;100398.69;;;6.32;64.74
84496;BME280;74855;51.206;17.408;2024-01-25T20:28:41;100406.53;;;6.32;64.90
84496;BME280;74855;51.206;17.408;2024-01-25T20:33:36;100414.72;;;6.29;64.91
84496;BME280;74855;51.206;17.408;2024-01-25T20:38:32;100408.88;;;6.27;64.28
84496;BME280;74855;51.206;17.408;2024-01-25T20:43:28;100409.66;;;6.27;64.87
84496;BME280;74855;51.206;17.408;2024-01-25T20:48:25;100409.66;;;6.27;64.60
84496;BME280;74855;51.206;17.408;2024-01-25T20:53:21;100417.06;;;6.24;64.85
84496;BME280;74855;51.206;17.408;2024-01-25T20:58:16;100414.63;;;6.22;64.77
84496;BME280;74855;51.206;17.408;2024-01-25T21:03:12;100417.59;;;6.19;64.84
84496;BME280;74855;51.206;17.408;2024-01-25T21:08:11;100415.47;;;6.15;64.81
84496;BME280;74855;51.206;17.408;2024-01-25T21:13:07;100418.47;;;6.12;64.94
84496;BME280;74855;51.206;17.408;2024-01-25T21:18:04;100421.25;;;6.10;64.69
84496;BME280;74855;51.206;17.408;2024-01-25T21:22:59;100432.56;;;6.02;64.28
84496;BME280;74855;51.206;17.408;2024-01-25T21:27:56;100429.66;;;5.97;64.85
84496;BME280;74855;51.206;17.408;2024-01-25T21:32:52;100430.66;;;5.96;64.40
84496;BME280;74855;51.206;17.408;2024-01-25T21:37:47;100445.72;;;5.94;64.50
84496;BME280;74855;51.206;17.408;2024-01-25T21:42:43;100438.03;;;5.93;64.29
84496;BME280;74855;51.206;17.408;2024-01-25T21:47:42;100447.53;;;5.94;64.36
84496;BME280;74855;51.206;17.408;2024-01-25T21:52:38;100453.59;;;5.94;64.50
84496;BME280;74855;51.206;17.408;2024-01-25T21:57:34;100453.59;;;5.94;64.21
84496;BME280;74855;51.206;17.408;2024-01-25T22:02:29;100469.44;;;5.93;64.49
84496;BME280;74855;51.206;17.408;2024-01-25T22:07:26;100474.84;;;5.91;64.61
84496;BME280;74855;51.206;17.408;2024-01-25T22:12:22;100482.53;;;5.93;64.73
84496;BME280;74855;51.206;17.408;2024-01-25T22:17:25;100483.06;;;5.88;64.13
84496;BME280;74855;51.206;17.408;2024-01-25T22:22:21;100490.91;;;5.88;64.74
84496;BME280;74855;51.206;17.408;2024-01-25T22:27:18;100491.88;;;5.87;64.25
84496;BME280;74855;51.206;17.408;2024-01-25T22:32:13;100504.13;;;5.87;64.77
84496;BME280;74855;51.206;17.408;2024-01-25T22:37:09;100514.44;;;5.88;64.50
84496;BME280;74855;51.206;17.408;2024-01-25T22:42:05;100510.03;;;5.89;64.41
84496;BME280;74855;51.206;17.408;2024-01-25T22:47:03;100512.66;;;5.89;64.33
84496;BME280;74855;51.206;17.408;2024-01-25T22:51:59;100521.63;;;5.86;64.75
84496;BME280;74855;51.206;17.408;2024-01-25T22:56:54;100514.09;;;5.83;64.40
84496;BME280;74855;51.206;17.408;2024-01-25T23:01:50;100518.84;;;5.80;64.63
84496;BME280;74855;51.206;17.408;2024-01-25T23:06:48;100526.53;;;5.81;64.00
84496;BME280;74855;51.206;17.408;2024-01-25T23:11:43;100527.38;;;5.82;63.94
84496;BME280;74855;51.206;17.408;2024-01-25T23:16:39;100531.94;;;5.80;64.16
84496;BME280;74855;51.206;17.408;2024-01-25T23:21:36;100532.75;;;5.80;64.63
84496;BME280;74855;51.206;17.408;2024-01-25T23:26:33;100532.75;;;5.80;64.72
84496;BME280;74855;51.206;17.408;2024-01-25T23:31:29;100540.75;;;5.79;65.01
84496;BME280;74855;51.206;17.408;2024-01-25T23:36:24;100546.97;;;5.78;65.30
84496;BME280;74855;51.206;17.408;2024-01-25T23:41:20;100540.63;;;5.72;65.61
84496;BME280;74855;51.206;17.408;2024-01-25T23:46:17;100539.81;;;5.72;65.55
84496;BME280;74855;51.206;17.408;2024-01-25T23:51:13;100552.72;;;5.73;65.31
84496;BME280;74855;51.206;17.408;2024-01-25T23:56:11;100556.31;;;5.72;65.99
